Time;durP1;ratioP1;P1;durP2;ratioP2;P2;SDS_P1;SDS_P2;PMS_P1;PMS_P2;Temp;Humidity;BMP_temperature;BMP_pressure;BME280_temperature;BME280_humidity;BME280_pressure;Samples;Min_cycle;Max_cycle;Signal;HPM_P1;HPM_P2
2024/04/18 00:00:34;;;;;;;83.40;79.10;;;23.40;1.00;;;;;;2612990;39;20779;-68
2024/04/18 00:03:00;;;;;;;83.37;78.97;;;23.40;1.00;;;;;;2613464;54;20731;-68
2024/04/18 00:05:26;;;;;;;83.00;78.70;;;23.40;1.00;;;;;;2612666;47;20159;-67
2024/04/18 00:07:52;;;;;;;83.17;78.87;;;23.40;1.00;;;;;;2613319;39;20361;-68
2024/04/18 00:10:17;;;;;;;83.23;78.93;;;23.40;1.00;;;;;;2614768;39;20385;-68
2024/04/18 00:12:43;;;;;;;82.97;78.67;;;23.40;1.00;;;;;;2614016;47;20158;-67
2024/04/18 00:15:09;;;;;;;83.90;79.50;;;23.40;1.00;;;;;;2614165;54;20154;-68
2024/04/18 00:17:35;;;;;;;83.00;78.70;;;23.30;1.00;;;;;;2614321;47;20205;-68
2024/04/18 00:20:02;;;;;;;83.03;78.73;;;23.40;1.00;;;;;;2614373;39;20834;-68
2024/04/18 00:22:28;;;;;;;82.80;78.50;;;23.30;1.00;;;;;;2613299;54;20415;-67
2024/04/18 00:24:53;;;;;;;83.20;78.90;;;23.30;1.00;;;;;;2614448;54;20396;-67
2024/04/18 00:27:19;;;;;;;83.70;79.30;;;23.30;1.00;;;;;;2614266;54;20166;-67
2024/04/18 00:29:46;;;;;;;84.00;79.70;;;23.30;1.00;;;;;;2614655;54;20146;-67
2024/04/18 00:32:13;;;;;;;84.17;79.77;;;23.30;1.00;;;;;;2613772;54;20166;-67
2024/04/18 00:34:39;;;;;;;83.20;78.90;;;23.30;1.00;;;;;;2614194;54;20400;-67
2024/04/18 00:37:05;;;;;;;83.20;78.90;;;23.30;1.00;;;;;;2614122;39;20486;-67
2024/04/18 00:39:31;;;;;;;82.77;78.57;;;23.30;1.00;;;;;;2613987;54;20542;-66
2024/04/18 00:41:56;;;;;;;82.50;78.30;;;23.20;1.00;;;;;;2614596;54;20683;-67
2024/04/18 00:44:22;;;;;;;83.60;79.30;;;23.20;1.00;;;;;;2615187;31;20646;-67
2024/04/18 00:46:49;;;;;;;83.70;79.40;;;23.20;1.00;;;;;;2615224;39;20651;-83
2024/04/18 00:49:16;;;;;;;82.60;78.30;;;23.20;1.00;;;;;;2615978;54;20155;-82
2024/04/18 00:51:42;;;;;;;83.23;78.93;;;23.20;1.00;;;;;;2615889;54;20399;-82
2024/04/18 00:54:09;;;;;;;83.33;79.03;;;23.20;1.00;;;;;;2615858;54;20534;-82
2024/04/18 00:56:36;;;;;;;83.37;79.07;;;23.20;1.00;;;;;;2615833;54;20478;-68
2024/04/18 00:59:05;;;;;;;83.57;79.27;;;23.20;1.00;;;;;;2614098;54;20407;-68
2024/04/18 01:01:32;;;;;;;82.67;78.47;;;23.20;1.00;;;;;;2612875;47;20416;-68
2024/04/18 01:03:58;;;;;;;83.07;78.87;;;23.20;1.00;;;;;;2613411;39;20779;-68
2024/04/18 01:06:23;;;;;;;83.40;79.10;;;23.20;1.00;;;;;;2612718;47;20515;-71
2024/04/18 01:08:51;;;;;;;84.40;80.00;;;23.20;1.00;;;;;;2614509;54;20426;-70
2024/04/18 01:11:16;;;;;;;83.70;79.40;;;23.20;1.00;;;;;;2614323;54;20159;-70
2024/04/18 01:13:42;;;;;;;83.53;79.23;;;23.20;1.00;;;;;;2614072;54;20933;-70
2024/04/18 01:16:08;;;;;;;83.83;79.53;;;23.20;1.00;;;;;;2615659;31;20651;-70
2024/04/18 01:18:34;;;;;;;83.87;79.57;;;23.20;1.00;;;;;;2614445;54;20166;-69
2024/04/18 01:21:01;;;;;;;84.57;80.20;;;23.10;1.00;;;;;;2614921;39;20628;-71
2024/04/18 01:23:27;;;;;;;84.20;79.90;;;23.10;1.00;;;;;;2614585;54;20407;-71
2024/04/18 01:25:53;;;;;;;83.40;79.10;;;23.10;1.00;;;;;;2614403;54;21064;-71
2024/04/18 01:28:19;;;;;;;82.90;78.60;;;23.20;1.00;;;;;;2614918;54;20407;-70
2024/04/18 01:30:45;;;;;;;82.90;78.70;;;23.10;1.00;;;;;;2614946;39;20707;-71
2024/04/18 01:33:11;;;;;;;83.10;78.80;;;23.10;1.00;;;;;;2614848;54;20479;-70
2024/04/18 01:35:36;;;;;;;83.00;78.70;;;23.10;1.00;;;;;;2614380;54;20419;-71
2024/04/18 01:38:03;;;;;;;83.00;78.70;;;23.10;1.00;;;;;;2614628;39;20529;-70
2024/04/18 01:40:29;;;;;;;83.53;79.23;;;23.10;1.00;;;;;;2614178;54;20178;-71
2024/04/18 01:42:55;;;;;;;83.13;78.83;;;23.10;1.00;;;;;;2614327;54;20396;-71
2024/04/18 01:45:20;;;;;;;83.60;79.30;;;23.10;1.00;;;;;;2614428;54;20428;-70
2024/04/18 01:47:46;;;;;;;83.33;79.03;;;23.10;1.00;;;;;;2614271;54;20171;-70
2024/04/18 01:50:12;;;;;;;82.73;78.53;;;23.10;1.00;;;;;;2614597;39;20682;-71
2024/04/18 01:52:39;;;;;;;83.27;78.97;;;23.10;1.00;;;;;;2614164;54;20251;-70
2024/04/18 01:55:06;;;;;;;83.17;78.87;;;23.00;1.00;;;;;;2614301;54;20423;-71
2024/04/18 01:57:32;;;;;;;82.80;78.50;;;23.10;1.00;;;;;;2613622;39;20793;-67
2024/04/18 01:59:58;;;;;;;83.50;79.20;;;23.10;1.00;;;;;;2613283;54;20408;-67
2024/04/18 02:02:25;;;;;;;84.23;79.83;;;23.10;1.00;;;;;;2613048;54;20487;-67
2024/04/18 02:04:51;;;;;;;83.23;78.93;;;23.00;1.00;;;;;;2612679;54;20162;-68
2024/04/18 02:07:17;;;;;;;83.37;79.07;;;23.00;1.00;;;;;;2613155;54;20391;-71
2024/04/18 02:09:43;;;;;;;83.93;79.63;;;23.00;1.00;;;;;;2614104;54;20937;-71
2024/04/18 02:12:09;;;;;;;82.83;78.63;;;23.00;1.00;;;;;;2613924;54;20415;-70
2024/04/18 02:14:35;;;;;;;83.47;79.17;;;23.00;1.00;;;;;;2615079;31;20726;-70
2024/04/18 02:17:00;;;;;;;82.70;78.40;;;23.00;1.00;;;;;;2614660;39;20576;-62
2024/04/18 02:19:26;;;;;;;83.00;78.70;;;23.10;1.00;;;;;;2613698;54;20889;-63
2024/04/18 02:21:52;;;;;;;82.37;78.17;;;23.00;1.00;;;;;;2613605;54;20170;-63
2024/04/18 02:24:18;;;;;;;82.93;78.63;;;23.10;1.00;;;;;;2613797;54;20250;-63
2024/04/18 02:26:43;;;;;;;82.93;78.63;;;23.00;1.00;;;;;;2613837;54;20532;-63
2024/04/18 02:29:10;;;;;;;82.37;78.07;;;23.00;1.00;;;;;;2613879;47;20297;-63
2024/04/18 02:31:35;;;;;;;83.37;79.07;;;23.00;1.00;;;;;;2613628;54;20151;-63
2024/04/18 02:34:01;;;;;;;83.80;79.50;;;23.00;1.00;;;;;;2613638;47;20950;-63
2024/04/18 02:36:27;;;;;;;85.43;81.03;;;23.00;1.00;;;;;;2613906;54;20158;-63
2024/04/18 02:38:53;;;;;;;83.20;78.90;;;23.00;1.00;;;;;;2613907;54;20166;-63
2024/04/18 02:41:18;;;;;;;83.90;79.50;;;23.00;1.00;;;;;;2613429;54;20147;-62
2024/04/18 02:43:44;;;;;;;83.80;79.40;;;23.00;1.00;;;;;;2613812;54;20173;-63
2024/04/18 02:46:10;;;;;;;84.20;79.80;;;23.00;1.00;;;;;;2613748;54;20161;-63
2024/04/18 02:48:37;;;;;;;84.00;79.60;;;22.90;1.00;;;;;;2614145;54;20254;-63
2024/04/18 02:51:07;;;;;;;84.57;80.17;;;23.00;1.00;;;;;;2613609;54;20158;-62
2024/04/18 02:53:33;;;;;;;84.50;80.00;;;22.90;1.00;;;;;;2613475;54;20989;-62
2024/04/18 02:55:59;;;;;;;83.77;79.43;;;23.00;1.00;;;;;;2613614;54;20437;-62
2024/04/18 02:58:25;;;;;;;83.60;79.20;;;22.90;1.00;;;;;;2613589;54;20158;-63
2024/04/18 03:00:50;;;;;;;84.23;79.83;;;22.90;1.00;;;;;;2612210;54;20219;-62
2024/04/18 03:03:16;;;;;;;85.17;80.67;;;22.90;1.00;;;;;;2612814;47;20230;-64
2024/04/18 03:05:42;;;;;;;84.60;80.20;;;22.90;1.00;;;;;;2612891;39;20631;-64
2024/04/18 03:08:08;;;;;;;84.90;80.50;;;22.90;1.00;;;;;;2614044;54;20143;-69
2024/04/18 03:10:33;;;;;;;85.20;80.70;;;22.90;1.00;;;;;;2613472;54;20182;-69
2024/04/18 03:12:59;;;;;;;85.60;81.10;;;22.90;1.00;;;;;;2614174;54;20645;-69
2024/04/18 03:15:24;;;;;;;84.57;80.17;;;22.90;1.00;;;;;;2613614;54;20150;-68
2024/04/18 03:17:51;;;;;;;85.20;80.70;;;22.80;1.00;;;;;;2613732;54;20321;-67
2024/04/18 03:20:17;;;;;;;85.90;81.30;;;22.90;1.00;;;;;;2613787;54;20703;-67
2024/04/18 03:22:43;;;;;;;85.40;80.80;;;22.90;1.00;;;;;;2613705;54;20431;-67
2024/04/18 03:25:09;;;;;;;86.30;81.70;;;22.80;1.00;;;;;;2614272;54;20395;-67
2024/04/18 03:27:35;;;;;;;85.53;80.93;;;22.80;1.00;;;;;;2613561;54;20671;-66
2024/04/18 03:30:00;;;;;;;86.50;81.90;;;22.80;1.00;;;;;;2613466;54;20246;-66
2024/04/18 03:32:26;;;;;;;86.80;82.20;;;22.80;1.00;;;;;;2613744;54;20518;-67
2024/04/18 03:34:52;;;;;;;85.10;80.60;;;22.90;1.00;;;;;;2613471;54;20166;-66
2024/04/18 03:37:18;;;;;;;85.73;81.23;;;22.90;1.00;;;;;;2613197;54;20495;-66
2024/04/18 03:39:44;;;;;;;85.90;81.30;;;22.80;1.00;;;;;;2613885;54;20410;-67
2024/04/18 03:42:09;;;;;;;84.93;80.43;;;22.80;1.00;;;;;;2613160;54;20170;-67
2024/04/18 03:44:36;;;;;;;86.27;81.57;;;22.90;1.00;;;;;;2613565;54;20158;-67
2024/04/18 03:47:02;;;;;;;86.33;81.63;;;22.80;1.00;;;;;;2613945;54;20710;-66
2024/04/18 03:49:28;;;;;;;86.07;81.40;;;22.80;1.00;;;;;;2613436;54;20431;-67
2024/04/18 03:51:54;;;;;;;85.70;81.10;;;22.80;1.00;;;;;;2613611;54;20166;-67
2024/04/18 03:54:21;;;;;;;86.03;81.43;;;22.80;1.00;;;;;;2613780;54;20549;-67
2024/04/18 03:56:47;;;;;;;85.43;80.83;;;22.80;1.00;;;;;;2613316;54;20400;-66
2024/04/18 03:59:13;;;;;;;86.40;81.70;;;22.80;1.00;;;;;;2612750;47;20423;-67
2024/04/18 04:01:39;;;;;;;85.50;80.90;;;22.80;1.00;;;;;;2612198;54;20399;-68
2024/04/18 04:04:06;;;;;;;84.73;80.23;;;22.80;1.00;;;;;;2612078;54;20507;-68
2024/04/18 04:06:32;;;;;;;85.30;80.70;;;22.80;1.00;;;;;;2612951;39;20530;-66
2024/04/18 04:08:57;;;;;;;84.97;80.37;;;23.00;1.00;;;;;;2613937;47;20404;-66
2024/04/18 04:11:24;;;;;;;85.00;80.40;;;23.00;1.00;;;;;;2613237;54;20427;-67
2024/04/18 04:13:50;;;;;;;85.00;80.40;;;22.90;1.00;;;;;;2613381;54;20147;-68
2024/04/18 04:16:16;;;;;;;86.20;81.50;;;22.90;1.00;;;;;;2613416;54;21040;-67
2024/04/18 04:18:41;;;;;;;86.27;81.57;;;22.90;1.00;;;;;;2613892;54;20139;-67
2024/04/18 04:21:07;;;;;;;86.30;81.60;;;23.00;1.00;;;;;;2613737;39;20800;-66
2024/04/18 04:23:33;;;;;;;86.33;81.53;;;23.00;1.00;;;;;;2613467;54;20150;-67
2024/04/18 04:25:59;;;;;;;86.80;82.00;;;22.90;1.00;;;;;;2612898;39;20802;-67
2024/04/18 04:28:25;;;;;;;86.90;82.10;;;22.90;1.00;;;;;;2613661;39;20441;-67
2024/04/18 04:30:50;;;;;;;86.80;82.00;;;22.90;1.00;;;;;;2613778;54;20146;-67
2024/04/18 04:33:16;;;;;;;86.23;81.53;;;22.90;1.00;;;;;;2614103;31;20639;-66
2024/04/18 04:35:42;;;;;;;85.93;81.23;;;22.80;1.00;;;;;;2613238;47;20174;-67
2024/04/18 04:38:07;;;;;;;86.73;81.93;;;22.80;1.00;;;;;;2613465;39;20415;-72
2024/04/18 04:40:33;;;;;;;85.40;80.80;;;22.80;1.00;;;;;;2613345;54;20672;-72
2024/04/18 04:42:59;;;;;;;86.70;81.90;;;22.80;1.00;;;;;;2613321;54;20163;-72
2024/04/18 04:45:25;;;;;;;85.83;81.13;;;22.70;1.00;;;;;;2613984;54;20158;-73
2024/04/18 04:47:51;;;;;;;85.90;81.20;;;22.70;1.00;;;;;;2613829;54;20406;-73
2024/04/18 04:50:17;;;;;;;85.57;80.87;;;22.80;1.00;;;;;;2614363;54;20161;-72
2024/04/18 04:52:42;;;;;;;85.40;80.80;;;22.80;1.00;;;;;;2614129;54;20392;-72
2024/04/18 04:55:08;;;;;;;85.07;80.47;;;22.80;1.00;;;;;;2614579;47;20180;-72
2024/04/18 04:57:34;;;;;;;85.90;81.30;;;22.70;1.00;;;;;;2614576;54;20151;-72
2024/04/18 04:59:59;;;;;;;86.23;81.63;;;22.70;1.00;;;;;;2612990;47;20166;-71
2024/04/18 05:02:25;;;;;;;85.93;81.33;;;22.70;1.00;;;;;;2613396;47;20174;-72
2024/04/18 05:04:52;;;;;;;84.83;80.23;;;22.70;1.00;;;;;;2612773;54;20242;-72
2024/04/18 05:07:18;;;;;;;85.50;80.80;;;22.70;1.00;;;;;;2613442;51;20167;-72
2024/04/18 05:09:43;;;;;;;85.20;80.60;;;22.70;1.00;;;;;;2614284;54;20388;-72
2024/04/18 05:12:09;;;;;;;85.93;81.23;;;22.70;1.00;;;;;;2613901;54;20142;-72
2024/04/18 05:14:35;;;;;;;85.87;81.17;;;22.70;1.00;;;;;;2614237;54;20258;-72
2024/04/18 05:17:00;;;;;;;85.70;81.00;;;22.70;1.00;;;;;;2614416;39;20566;-73
2024/04/18 05:19:26;;;;;;;85.93;81.33;;;22.70;1.00;;;;;;2614025;54;20155;-72
2024/04/18 05:21:52;;;;;;;86.00;81.30;;;22.70;1.00;;;;;;2614912;54;20137;-72
2024/04/18 05:24:17;;;;;;;85.50;80.90;;;22.70;1.00;;;;;;2614400;54;20758;-72
2024/04/18 05:26:43;;;;;;;85.53;80.83;;;22.70;1.00;;;;;;2614324;54;20668;-72
2024/04/18 05:31:53;;;;;;;85.33;80.63;;;22.70;1.00;;;;;;2614595;54;20680;-72
2024/04/18 05:34:19;;;;;;;90.43;85.43;;;22.70;1.00;;;;;;2614299;54;21288;-71
2024/04/18 05:36:47;;;;;;;86.10;81.30;;;22.70;1.00;;;;;;2614772;50;20930;-81
2024/04/18 05:39:13;;;;;;;87.40;82.60;;;22.60;1.00;;;;;;2614778;54;20190;-81
2024/04/18 05:41:39;;;;;;;86.00;81.30;;;22.70;1.00;;;;;;2614953;54;20415;-80
2024/04/18 05:44:04;;;;;;;86.37;81.57;;;22.70;1.00;;;;;;2614494;47;20166;-81
2024/04/18 05:46:30;;;;;;;85.80;81.10;;;22.60;1.00;;;;;;2614392;54;20265;-71
2024/04/18 05:48:56;;;;;;;86.30;81.50;;;22.60;1.00;;;;;;2614493;54;20151;-71
2024/04/18 05:51:22;;;;;;;85.63;80.83;;;22.60;1.00;;;;;;2614241;39;20586;-71
2024/04/18 05:53:48;;;;;;;86.90;82.10;;;22.60;1.00;;;;;;2614072;54;20733;-71
2024/04/18 05:56:13;;;;;;;86.77;82.07;;;22.60;1.00;;;;;;2613744;54;20968;-72
2024/04/18 05:58:40;;;;;;;86.93;82.13;;;22.60;1.00;;;;;;2613060;47;20186;-71
2024/04/18 06:01:06;;;;;;;86.93;82.13;;;22.60;1.00;;;;;;2613621;54;20182;-71
2024/04/18 06:03:32;;;;;;;86.13;81.37;;;22.60;1.00;;;;;;2612500;54;20401;-71
2024/04/18 06:05:58;;;;;;;86.80;82.00;;;22.60;1.00;;;;;;2614031;47;20253;-71
2024/04/18 06:08:24;;;;;;;87.43;82.53;;;22.60;1.00;;;;;;2614012;46;20471;-71
2024/04/18 06:10:50;;;;;;;86.80;82.00;;;22.70;1.00;;;;;;2613778;54;20416;-70
2024/04/18 06:13:16;;;;;;;86.50;81.70;;;22.70;1.00;;;;;;2614143;54;20424;-70
2024/04/18 06:15:43;;;;;;;89.50;84.60;;;22.70;1.00;;;;;;2613031;54;20438;-69
2024/04/18 06:18:09;;;;;;;93.03;87.93;;;22.80;1.00;;;;;;2613913;54;20151;-75
2024/04/18 06:20:44;;;;;;;94.20;89.10;;;23.20;1.00;;;;;;2613913;47;20443;-73
2024/04/18 06:23:10;;;;;;;95.90;90.60;;;23.40;1.00;;;;;;2614356;39;20766;-75
2024/04/18 06:25:37;;;;;;;96.20;91.00;;;23.50;1.00;;;;;;2613762;54;20411;-74
2024/04/18 06:28:05;;;;;;;95.30;89.80;;;23.60;1.00;;;;;;2614659;54;20404;-77
2024/04/18 06:30:31;;;;;;;93.97;88.60;;;23.70;1.00;;;;;;2615081;54;20407;-79
2024/04/18 06:32:57;;;;;;;84.33;80.10;;;23.80;1.00;;;;;;2614733;54;20394;-68
2024/04/18 06:35:23;;;;;;;94.30;88.80;;;23.90;1.00;;;;;;2613889;54;20179;-68
2024/04/18 06:37:50;;;;;;;91.60;86.70;;;24.00;1.00;;;;;;2611423;39;20938;-71
2024/04/18 06:40:19;;;;;;;93.00;88.00;;;23.90;1.00;;;;;;2613658;54;20392;-72
2024/04/18 06:42:44;;;;;;;93.00;88.00;;;23.80;1.00;;;;;;2614382;54;20438;-68
2024/04/18 06:45:10;;;;;;;92.80;87.70;;;23.60;1.00;;;;;;2613785;54;20419;-68
2024/04/18 06:47:36;;;;;;;91.07;86.17;;;23.50;1.00;;;;;;2612403;54;20680;-68
2024/04/18 06:50:02;;;;;;;91.40;86.50;;;23.50;1.00;;;;;;2613659;47;20419;-68
2024/04/18 06:52:27;;;;;;;92.30;87.30;;;23.50;1.00;;;;;;2613521;54;20147;-68
2024/04/18 06:54:53;;;;;;;93.30;88.20;;;23.40;1.00;;;;;;2613365;54;20170;-68
2024/04/18 06:57:19;;;;;;;92.17;87.07;;;23.40;1.00;;;;;;2613632;54;20247;-68
2024/04/18 06:59:44;;;;;;;91.40;86.40;;;23.30;1.00;;;;;;2612904;54;20167;-68
2024/04/18 07:02:10;;;;;;;92.20;87.20;;;23.30;1.00;;;;;;2614150;54;20163;-68
2024/04/18 07:04:36;;;;;;;92.00;87.00;;;23.30;1.00;;;;;;2614111;54;20151;-69
2024/04/18 07:07:06;;;;;;;91.43;86.43;;;23.20;1.00;;;;;;2613966;54;20163;-68
2024/04/18 07:09:32;;;;;;;92.50;87.40;;;23.20;1.00;;;;;;2613808;47;20507;-68
2024/04/18 07:12:00;;;;;;;90.87;85.87;;;23.20;1.00;;;;;;2613046;54;20447;-68
2024/04/18 07:14:25;;;;;;;90.00;85.10;;;23.20;1.00;;;;;;2614014;47;20303;-69
2024/04/18 07:16:51;;;;;;;90.03;85.13;;;23.20;1.00;;;;;;2613658;54;20918;-69
2024/04/18 07:19:17;;;;;;;89.93;85.03;;;23.20;1.00;;;;;;2613883;54;20652;-70
2024/04/18 07:21:42;;;;;;;88.57;83.77;;;23.20;1.00;;;;;;2612898;54;20163;-71
2024/04/18 07:24:08;;;;;;;87.07;82.37;;;23.20;1.00;;;;;;2613118;54;20269;-69
2024/04/18 07:26:34;;;;;;;86.70;82.00;;;23.20;1.00;;;;;;2613632;46;20191;-68
2024/04/18 07:28:59;;;;;;;87.20;82.50;;;23.10;1.00;;;;;;2613716;54;20146;-70
2024/04/18 07:31:25;;;;;;;87.93;83.23;;;22.90;1.00;;;;;;2613918;47;20234;-70
2024/04/18 07:33:51;;;;;;;88.40;83.70;;;22.80;1.00;;;;;;2613586;54;20157;-69
2024/04/18 07:36:21;;;;;;;88.37;83.57;;;22.70;1.00;;;;;;2613654;54;20675;-68
2024/04/18 07:38:48;;;;;;;87.77;83.07;;;22.70;1.00;;;;;;2612604;47;20167;-70
2024/04/18 07:41:13;;;;;;;88.63;83.83;;;22.60;1.00;;;;;;2613327;54;20423;-70
2024/04/18 07:43:39;;;;;;;88.53;83.73;;;22.60;1.00;;;;;;2612074;54;20414;-69
2024/04/18 07:46:04;;;;;;;88.90;84.10;;;22.50;1.00;;;;;;2613858;47;20162;-67
2024/04/18 07:48:30;;;;;;;88.20;83.40;;;22.40;1.00;;;;;;2613626;54;20154;-67
2024/04/18 07:50:56;;;;;;;88.30;83.50;;;22.50;1.00;;;;;;2613795;39;20568;-67
2024/04/18 07:53:22;;;;;;;87.90;83.10;;;22.60;1.00;;;;;;2612349;54;20194;-65
2024/04/18 07:55:47;;;;;;;88.07;83.27;;;22.60;1.00;;;;;;2613359;54;20177;-66
2024/04/18 07:58:13;;;;;;;88.10;83.30;;;22.60;1.00;;;;;;2613320;47;20411;-68
2024/04/18 08:00:39;;;;;;;87.10;82.40;;;22.60;1.00;;;;;;2613396;54;20255;-69
2024/04/18 08:03:05;;;;;;;86.77;82.07;;;22.70;1.00;;;;;;2612817;39;20622;-68
2024/04/18 08:05:30;;;;;;;87.20;82.60;;;22.70;1.00;;;;;;2613671;54;20174;-68
2024/04/18 08:07:56;;;;;;;88.03;83.33;;;22.80;1.00;;;;;;2613584;54;20234;-70
2024/04/18 08:10:21;;;;;;;88.20;83.50;;;22.80;1.00;;;;;;2613397;54;20262;-70
2024/04/18 08:12:47;;;;;;;88.10;83.50;;;22.80;1.00;;;;;;2614097;54;20269;-69
2024/04/18 08:15:13;;;;;;;88.20;83.60;;;22.80;1.00;;;;;;2613615;47;20163;-70
2024/04/18 08:17:39;;;;;;;87.07;82.47;;;22.80;1.00;;;;;;2613996;54;20174;-69
2024/04/18 08:20:05;;;;;;;87.00;82.40;;;22.70;1.00;;;;;;2613781;54;20178;-71
2024/04/18 08:22:31;;;;;;;86.10;81.60;;;22.70;1.00;;;;;;2614415;54;20150;-70
2024/04/18 08:24:57;;;;;;;87.10;82.50;;;22.70;1.00;;;;;;2613704;54;20458;-70
2024/04/18 08:27:23;;;;;;;86.77;82.17;;;22.70;1.00;;;;;;2614603;54;20415;-71
2024/04/18 08:29:49;;;;;;;86.67;81.97;;;22.70;1.00;;;;;;2614551;54;20202;-70
2024/04/18 08:32:14;;;;;;;87.40;82.70;;;22.70;1.00;;;;;;2614498;54;20210;-70
2024/04/18 08:34:40;;;;;;;87.60;82.90;;;22.70;1.00;;;;;;2613926;54;20170;-70
2024/04/18 08:37:06;;;;;;;87.73;83.03;;;22.70;1.00;;;;;;2613381;54;20174;-68
2024/04/18 08:39:31;;;;;;;88.70;84.00;;;22.70;1.00;;;;;;2614597;47;20159;-71
2024/04/18 08:41:58;;;;;;;88.40;83.60;;;22.70;1.00;;;;;;2613807;47;20159;-69
2024/04/18 08:44:25;;;;;;;87.57;82.87;;;22.80;1.00;;;;;;2614051;54;20246;-70
2024/04/18 08:46:51;;;;;;;87.70;82.87;;;22.80;1.00;;;;;;2614205;54;20424;-70
2024/04/18 08:49:18;;;;;;;87.70;82.90;;;22.90;1.00;;;;;;2614092;54;20408;-70
2024/04/18 08:51:45;;;;;;;87.53;82.83;;;23.00;1.00;;;;;;2613284;47;20435;-70
2024/04/18 08:54:11;;;;;;;88.33;83.63;;;23.10;1.00;;;;;;2613906;54;20530;-69
2024/04/18 08:56:42;;;;;;;87.73;83.03;;;23.10;1.00;;;;;;2613770;47;20419;-71
2024/04/18 08:59:09;;;;;;;88.57;83.87;;;23.20;1.00;;;;;;2613202;54;20147;-70
2024/04/18 09:01:34;;;;;;;88.50;83.70;;;23.30;1.00;;;;;;2613188;54;20396;-70
2024/04/18 09:04:00;;;;;;;88.03;83.13;;;23.30;1.00;;;;;;2612949;39;20775;-70
2024/04/18 09:06:26;;;;;;;88.20;83.20;;;23.30;1.00;;;;;;2614165;54;20746;-64
2024/04/18 09:08:52;;;;;;;88.50;83.60;;;23.40;1.00;;;;;;2614274;54;20159;-65
2024/04/18 09:11:18;;;;;;;86.80;82.00;;;23.50;1.00;;;;;;2614002;47;20254;-65
2024/04/18 09:13:45;;;;;;;87.57;82.67;;;23.50;1.00;;;;;;2613400;39;20815;-66
2024/04/18 09:16:10;;;;;;;87.90;83.00;;;23.60;1.00;;;;;;2614398;54;20426;-71
2024/04/18 09:18:38;;;;;;;87.50;82.60;;;23.60;1.00;;;;;;2613914;54;20425;-70
2024/04/18 09:21:07;;;;;;;87.07;82.27;;;23.60;1.00;;;;;;2614106;54;20187;-70
2024/04/18 09:23:33;;;;;;;88.03;83.13;;;23.60;1.00;;;;;;2614200;54;20407;-70
2024/04/18 09:26:00;;;;;;;87.20;82.40;;;23.70;1.00;;;;;;2613347;54;20815;-68
2024/04/18 09:28:26;;;;;;;87.37;82.67;;;23.70;1.00;;;;;;2613489;54;20143;-69
2024/04/18 09:30:55;;;;;;;87.73;83.00;;;23.70;1.00;;;;;;2613673;54;20403;-67
2024/04/18 09:33:23;;;;;;;86.40;81.70;;;23.60;1.00;;;;;;2614004;54;20391;-68
2024/04/18 09:35:52;;;;;;;88.00;83.20;;;23.60;1.00;;;;;;2612164;54;20545;-68
2024/04/18 09:38:18;;;;;;;88.20;83.40;;;23.60;1.00;;;;;;2613913;54;20450;-68
2024/04/18 09:40:51;;;;;;;86.30;81.60;;;23.50;1.00;;;;;;2614527;39;20806;-68
2024/04/18 09:43:30;;;;;;;87.93;83.23;;;23.40;1.00;;;;;;2614312;54;20408;-67
2024/04/18 09:46:08;;;;;;;87.50;82.80;;;23.40;1.00;;;;;;2613858;54;20407;-68
2024/04/18 09:48:35;;;;;;;88.70;83.90;;;23.50;1.00;;;;;;2614379;39;20754;-69
2024/04/18 09:51:03;;;;;;;87.70;83.00;;;23.50;1.00;;;;;;2613874;39;20806;-68
2024/04/18 09:53:32;;;;;;;88.10;83.30;;;23.60;1.00;;;;;;2613767;39;20840;-68
2024/04/18 09:55:59;;;;;;;88.13;83.23;;;23.70;1.00;;;;;;2613968;46;20550;-68
2024/04/18 09:58:27;;;;;;;88.70;83.80;;;23.80;1.00;;;;;;2613590;54;20411;-68
2024/04/18 10:00:54;;;;;;;87.13;82.43;;;23.80;1.00;;;;;;2613243;54;20434;-68
2024/04/18 10:03:20;;;;;;;87.30;82.60;;;23.80;1.00;;;;;;2613536;54;20409;-67
2024/04/18 10:05:50;;;;;;;88.30;83.50;;;23.80;1.00;;;;;;2613906;54;20415;-68
2024/04/18 10:08:19;;;;;;;87.60;82.80;;;23.80;1.00;;;;;;2613687;47;20427;-68
2024/04/18 10:10:45;;;;;;;87.17;82.47;;;23.70;1.00;;;;;;2613671;54;20420;-67
2024/04/18 10:13:11;;;;;;;89.30;84.57;;;23.80;1.00;;;;;;2613774;46;20432;-68
2024/04/18 10:15:37;;;;;;;88.67;83.87;;;23.70;1.00;;;;;;2614072;54;21111;-68
2024/04/18 10:18:16;;;;;;;88.47;83.67;;;23.80;1.00;;;;;;2613872;54;20720;-70
2024/04/18 10:20:43;;;;;;;87.00;82.30;;;23.90;1.00;;;;;;2612746;54;20158;-70
2024/04/18 10:23:15;;;;;;;86.90;82.20;;;23.90;1.00;;;;;;2613042;54;20395;-69
2024/04/18 10:25:44;;;;;;;88.67;83.87;;;23.90;1.00;;;;;;2614271;54;20425;-69
2024/04/18 10:28:36;;;;;;;88.40;83.50;;;23.80;1.00;;;;;;2613092;54;20442;-67
2024/04/18 10:31:04;;;;;;;87.37;82.77;;;23.80;1.00;;;;;;2613274;54;20430;-68
2024/04/18 10:33:29;;;;;;;87.57;82.87;;;23.90;1.00;;;;;;2613545;54;20399;-67
2024/04/18 10:36:08;;;;;;;87.40;82.70;;;23.90;1.00;;;;;;2613688;47;20431;-69
2024/04/18 10:38:34;;;;;;;88.07;83.27;;;24.00;1.00;;;;;;2614019;54;20177;-66
2024/04/18 10:41:04;;;;;;;87.93;83.13;;;24.10;1.00;;;;;;2613608;47;20957;-67
2024/04/18 10:43:32;;;;;;;87.60;82.80;;;24.10;1.00;;;;;;2614198;54;20211;-67
2024/04/18 10:46:00;;;;;;;87.13;82.37;;;24.10;1.00;;;;;;2608538;54;20392;-67
2024/04/18 10:48:27;;;;;;;88.03;83.23;;;24.10;1.00;;;;;;2609427;47;20415;-68
2024/04/18 10:50:52;;;;;;;86.90;82.20;;;24.10;1.00;;;;;;2609366;39;20589;-67
2024/04/18 10:53:19;;;;;;;86.97;82.27;;;24.10;1.00;;;;;;2608888;54;20484;-68
2024/04/18 10:55:45;;;;;;;87.33;82.63;;;24.20;1.00;;;;;;2611375;39;20505;-67
2024/04/18 10:58:15;;;;;;;87.70;83.00;;;24.20;1.00;;;;;;2609713;54;20451;-67
2024/04/18 11:00:44;;;;;;;86.80;82.10;;;24.10;1.00;;;;;;2610098;39;20746;-68
2024/04/18 11:03:13;;;;;;;87.40;82.70;;;24.10;1.00;;;;;;2612298;54;20528;-68
2024/04/18 11:05:43;;;;;;;86.90;82.30;;;24.10;1.00;;;;;;2613547;50;20415;-67
2024/04/18 11:08:09;;;;;;;87.57;82.87;;;24.10;1.00;;;;;;2613841;54;20442;-68
2024/04/18 11:10:36;;;;;;;87.90;83.10;;;24.10;1.00;;;;;;2612225;54;20403;-68
2024/04/18 11:13:02;;;;;;;87.53;82.73;;;24.10;1.00;;;;;;2613814;54;20419;-68
2024/04/18 11:15:32;;;;;;;87.40;82.60;;;24.10;1.00;;;;;;2612215;54;21060;-68
2024/04/18 11:18:05;;;;;;;87.70;82.90;;;24.10;1.00;;;;;;2613701;47;20424;-68
2024/04/18 11:20:31;;;;;;;88.93;84.03;;;24.10;1.00;;;;;;2613491;54;20423;-67
2024/04/18 11:22:57;;;;;;;88.40;83.50;;;24.10;1.00;;;;;;2613790;54;20390;-67
2024/04/18 11:25:23;;;;;;;87.80;83.00;;;24.20;1.00;;;;;;2613361;54;20411;-66
2024/04/18 11:27:51;;;;;;;88.10;83.20;;;24.20;1.00;;;;;;2613494;54;20228;-66
2024/04/18 11:30:19;;;;;;;88.03;83.13;;;24.30;1.00;;;;;;2613877;54;20390;-65
2024/04/18 11:32:54;;;;;;;88.77;83.87;;;24.30;1.00;;;;;;2613003;54;20499;-66
2024/04/18 11:35:21;;;;;;;87.60;82.80;;;24.30;1.00;;;;;;2613696;47;20415;-65
2024/04/18 11:37:47;;;;;;;88.00;83.10;;;24.30;1.00;;;;;;2613986;54;20895;-68
2024/04/18 11:40:14;;;;;;;87.37;82.57;;;24.30;1.00;;;;;;2613422;47;20429;-67
2024/04/18 11:42:41;;;;;;;86.80;82.00;;;24.30;1.00;;;;;;2613556;47;20438;-67
2024/04/18 11:45:07;;;;;;;88.30;83.40;;;24.20;1.00;;;;;;2614010;39;20852;-68
2024/04/18 11:47:33;;;;;;;89.63;84.73;;;24.20;1.00;;;;;;2613645;54;20532;-68
2024/04/18 11:49:59;;;;;;;87.83;82.93;;;24.10;1.00;;;;;;2613839;54;20400;-68
2024/04/18 11:52:25;;;;;;;91.80;86.80;;;24.10;1.00;;;;;;2613583;54;20166;-67
2024/04/18 11:54:51;;;;;;;88.17;83.27;;;24.10;1.00;;;;;;2613456;54;21068;-68
2024/04/18 11:57:17;;;;;;;89.40;84.50;;;24.20;1.00;;;;;;2613325;54;20278;-68
2024/04/18 11:59:43;;;;;;;91.30;86.07;;;24.20;1.00;;;;;;2614469;39;20724;-68
2024/04/18 12:02:10;;;;;;;88.43;83.63;;;24.20;1.00;;;;;;2613273;54;20419;-68
2024/04/18 12:04:35;;;;;;;87.87;83.07;;;24.20;1.00;;;;;;2614431;39;20865;-68
2024/04/18 12:07:01;;;;;;;86.43;81.73;;;24.30;1.00;;;;;;2614565;54;20411;-68
2024/04/18 12:09:28;;;;;;;87.50;82.70;;;24.30;1.00;;;;;;2614380;39;20547;-67
2024/04/18 12:11:53;;;;;;;87.90;83.10;;;24.30;1.00;;;;;;2614694;39;20549;-68
2024/04/18 12:14:19;;;;;;;87.77;82.97;;;24.20;1.00;;;;;;2614337;54;20438;-68
2024/04/18 12:16:45;;;;;;;87.30;82.60;;;24.20;1.00;;;;;;2614645;54;20173;-68
2024/04/18 12:19:11;;;;;;;87.40;82.70;;;24.20;1.00;;;;;;2614588;54;20671;-68
2024/04/18 12:21:36;;;;;;;87.23;82.57;;;24.20;1.00;;;;;;2614283;54;20211;-68
2024/04/18 12:24:02;;;;;;;87.20;82.50;;;24.20;1.00;;;;;;2614632;54;20250;-68
2024/04/18 12:26:28;;;;;;;86.80;82.10;;;24.30;1.00;;;;;;2614245;54;20752;-68
2024/04/18 12:28:53;;;;;;;87.10;82.50;;;24.30;1.00;;;;;;2614527;54;20150;-68
2024/04/18 12:31:19;;;;;;;94.93;89.87;;;24.30;1.00;;;;;;2614065;47;20167;-67
2024/04/18 12:33:45;;;;;;;87.23;82.53;;;24.30;1.00;;;;;;2614133;54;20673;-66